Time;durP1;ratioP1;P1;durP2;ratioP2;P2;SDS_P1;SDS_P2;PMS_P1;PMS_P2;Temp;Humidity;BMP_temperature;BMP_pressure;BME280_temperature;BME280_humidity;BME280_pressure;Samples;Min_cycle;Max_cycle;Signal;HPM_P1;HPM_P2
2021/12/20 00:02:10;;;;;;;8.18;5.28;;;;;;;3.24;83.14;99007.48;1745249;82;21036;-77
2021/12/20 00:04:38;;;;;;;7.72;4.67;;;;;;;3.26;83.12;99010.82;1745079;81;21567;-76
2021/12/20 00:07:05;;;;;;;7.75;5.58;;;;;;;3.27;83.11;99009.92;1744759;81;20972;-74
2021/12/20 00:09:34;;;;;;;7.70;5.12;;;;;;;3.29;83.04;99014.55;1744569;81;20858;-78
2021/12/20 00:12:01;;;;;;;9.20;4.58;;;;;;;3.32;83.00;99009.66;1744552;81;20933;-77
2021/12/20 00:14:30;;;;;;;9.53;6.00;;;;;;;3.31;82.72;99017.90;1744568;81;20984;-76
2021/12/20 00:16:57;;;;;;;8.85;4.90;;;;;;;3.28;82.64;99017.22;1744805;82;21477;-76
2021/12/20 00:19:25;;;;;;;11.35;6.47;;;;;;;3.26;82.49;99018.59;1744407;82;21386;-77
2021/12/20 00:21:53;;;;;;;10.32;5.87;;;;;;;3.22;82.32;99013.20;1744562;80;21355;-76
2021/12/20 00:24:20;;;;;;;10.98;6.53;;;;;;;3.20;82.27;99021.98;1744569;82;20941;-77
2021/12/20 00:26:47;;;;;;;9.43;5.58;;;;;;;3.17;82.35;99024.75;1744814;82;21062;-76
2021/12/20 00:29:14;;;;;;;10.03;5.92;;;;;;;3.17;82.46;99028.64;1744702;81;21506;-77
2021/12/20 00:31:41;;;;;;;7.58;5.55;;;;;;;3.19;82.59;99034.11;1744442;82;20945;-76
2021/12/20 00:34:08;;;;;;;10.58;6.00;;;;;;;3.23;82.59;99032.19;1744575;82;21485;-77
2021/12/20 00:36:35;;;;;;;7.20;4.70;;;;;;;3.25;82.61;99027.77;1744490;81;20933;-77
2021/12/20 00:41:47;;;;;;;5.80;4.20;;;;;;;3.23;82.10;99033.48;1744821;82;21505;-76
2021/12/20 00:44:14;;;;;;;5.80;3.35;;;;;;;3.21;81.97;99037.92;1744524;82;20980;-77
2021/12/20 00:46:41;;;;;;;7.12;4.30;;;;;;;3.18;81.70;99036.77;1744541;82;20881;-78
2021/12/20 00:49:08;;;;;;;7.72;4.20;;;;;;;3.15;81.61;99045.55;1744544;82;20988;-78
2021/12/20 00:51:35;;;;;;;7.92;3.75;;;;;;;3.14;81.54;99038.72;1744760;82;21047;-78
2021/12/20 00:54:02;;;;;;;8.88;4.42;;;;;;;3.13;81.41;99034.44;1744540;82;21514;-79
2021/12/20 00:56:29;;;;;;;4.47;3.37;;;;;;;3.11;81.35;99042.75;1744446;82;21011;-78
2021/12/20 00:58:56;;;;;;;4.97;4.25;;;;;;;3.09;81.37;99042.85;1744710;82;21059;-77
2021/12/20 01:01:22;;;;;;;6.83;5.22;;;;;;;3.10;81.52;99041.09;1744471;80;20901;-77
2021/12/20 01:03:49;;;;;;;9.05;5.10;;;;;;;3.13;81.54;99034.44;1708953;84;21007;-78
2021/12/20 01:06:16;;;;;;;7.37;4.40;;;;;;;3.16;81.43;99042.06;1708704;84;21166;-77
2021/12/20 01:08:45;;;;;;;10.78;6.33;;;;;;;3.16;81.30;99042.06;1708588;84;20891;-77
2021/12/20 01:11:19;;;;;;;12.47;8.23;;;;;;;3.14;81.09;99046.48;1708772;82;20916;-77
2021/12/20 01:13:41;;;;;;;18.23;9.85;;;;;;;3.13;80.95;99045.27;1708566;83;21120;-76
2021/12/20 01:16:11;;;;;;;12.47;7.42;;;;;;;3.11;80.88;99040.16;1708929;84;21491;-79
2021/12/20 01:18:37;;;;;;;11.68;6.85;;;;;;;3.07;80.34;99039.98;1708724;83;20986;-80
2021/12/20 01:21:03;;;;;;;13.70;8.18;;;;;;;3.02;80.24;99041.49;1708754;84;21516;-77
2021/12/20 01:23:30;;;;;;;15.68;8.05;;;;;;;2.99;80.21;99042.14;1708827;84;20983;-78
2021/12/20 01:25:59;;;;;;;16.60;9.68;;;;;;;2.94;80.35;99053.22;1708461;84;21480;-78
2021/12/20 01:28:26;;;;;;;9.75;6.83;;;;;;;2.94;80.55;99050.63;1708727;84;20983;-79
2021/12/20 01:30:53;;;;;;;10.48;6.15;;;;;;;2.94;80.69;99055.34;1708687;84;21156;-79
2021/12/20 01:33:21;;;;;;;9.60;5.20;;;;;;;2.99;80.73;99054.62;1708778;82;20940;-76
2021/12/20 01:35:48;;;;;;;6.95;3.75;;;;;;;3.00;80.67;99056.74;1709642;82;20939;-76
2021/12/20 01:38:15;;;;;;;5.60;3.47;;;;;;;2.99;80.46;99055.91;1708823;82;20896;-77
2021/12/20 01:40:42;;;;;;;4.37;2.92;;;;;;;2.99;80.42;99056.37;1708662;82;20987;-78
2021/12/20 01:43:13;;;;;;;4.62;2.40;;;;;;;2.99;80.19;99057.67;1708523;84;21174;-78
2021/12/20 01:45:40;;;;;;;2.87;1.92;;;;;;;2.97;80.01;99064.22;1708722;84;20928;-78
2021/12/20 01:48:10;;;;;;;1.67;1.12;;;;;;;2.95;79.85;99062.17;1708913;84;21342;-78
2021/12/20 01:53:13;;;;;;;2.05;1.87;;;;;;;2.89;79.61;99067.67;1708756;83;20912;-78
2021/12/20 01:55:41;;;;;;;1.95;1.40;;;;;;;2.87;79.50;99065.19;1708775;84;22009;-79
2021/12/20 01:58:08;;;;;;;1.98;1.62;;;;;;;2.88;79.67;99068.60;1708739;84;20971;-78
2021/12/20 02:01:18;;;;;;;2.08;1.25;;;;;;;2.86;79.33;99067.84;1708934;84;20860;-78
2021/12/20 02:03:04;;;;;;;1.67;1.20;;;;;;;2.81;79.45;99071.14;1705762;84;20939;-78
2021/12/20 02:05:50;;;;;;;1.98;1.77;;;;;;;2.78;79.58;99077.33;1709231;84;20931;-78
2021/12/20 02:08:19;;;;;;;0.98;0.90;;;;;;;2.79;79.74;99072.52;1707706;82;21151;-79
2021/12/20 02:10:46;;;;;;;1.30;1.02;;;;;;;2.78;79.62;99078.63;1710472;83;20904;-77
2021/12/20 02:13:14;;;;;;;2.58;1.00;;;;;;;2.77;79.47;99081.28;1708974;82;20904;-77
2021/12/20 02:15:40;;;;;;;5.62;2.80;;;;;;;2.73;79.43;99086.23;1708779;82;20936;-75
2021/12/20 02:18:07;;;;;;;0.40;0.40;;;;;;;2.67;79.47;99084.36;1708912;84;20868;-78
2021/12/20 02:20:36;;;;;;;0.50;0.50;;;;;;;2.63;78.98;99088.02;1708803;84;22014;-80
2021/12/20 02:23:03;;;;;;;0.82;0.47;;;;;;;2.61;78.71;99089.84;1708709;82;21430;-79
2021/12/20 02:25:30;;;;;;;1.07;1.05;;;;;;;2.58;78.42;99089.16;1708816;84;20901;-79
2021/12/20 02:27:59;;;;;;;1.65;0.90;;;;;;;2.54;78.43;99088.96;1708718;82;20877;-80
2021/12/20 02:38:33;;;;;;;0.60;0.60;;;;;;;2.51;78.44;99096.86;1708831;84;20947;-77
2021/12/20 02:41:10;;;;;;;0.60;0.60;;;;;;;2.52;78.31;99111.03;1708683;82;21002;-78
2021/12/20 02:43:41;;;;;;;1.77;0.50;;;;;;;2.54;78.12;99113.08;1708862;82;21007;-78
2021/12/20 02:46:33;;;;;;;0.90;0.70;;;;;;;2.54;77.96;99118.72;1709079;84;21792;-79
2021/12/20 02:48:55;;;;;;;0.45;0.45;;;;;;;2.56;78.01;99122.06;1708463;83;20932;-78
2021/12/20 02:51:27;;;;;;;0.68;0.50;;;;;;;2.57;77.89;99125.84;1709098;82;21406;-77
2021/12/20 02:53:51;;;;;;;0.65;0.60;;;;;;;2.58;78.09;99127.97;1713308;83;20900;-78
2021/12/20 02:56:17;;;;;;;0.70;0.65;;;;;;;2.63;78.15;99129.89;1716699;83;20908;-77
2021/12/20 02:58:45;;;;;;;0.75;0.60;;;;;;;2.64;77.94;99132.37;1716434;83;21160;-77
2021/12/20 03:01:12;;;;;;;0.65;0.65;;;;;;;2.68;77.87;99138.24;1716358;83;20919;-78
2021/12/20 03:03:39;;;;;;;1.07;0.60;;;;;;;2.68;77.73;99139.07;1716547;83;21425;-78
2021/12/20 03:06:14;;;;;;;0.62;0.53;;;;;;;2.67;77.57;99142.59;1716894;83;20932;-78
2021/12/20 03:08:44;;;;;;;1.67;0.57;;;;;;;2.63;77.50;99142.36;1716524;82;20991;-76
2021/12/20 03:11:11;;;;;;;0.65;0.57;;;;;;;2.60;77.34;99142.97;1716752;83;21666;-78
2021/12/20 03:13:38;;;;;;;0.85;0.55;;;;;;;2.55;77.46;99139.78;1716310;83;20997;-79
2021/12/20 03:16:05;;;;;;;1.37;0.57;;;;;;;2.51;77.66;99145.56;1716727;83;20931;-78
2021/12/20 03:18:33;;;;;;;0.57;0.57;;;;;;;2.51;77.85;99148.61;1716436;83;20947;-79
2021/12/20 03:21:00;;;;;;;0.40;0.40;;;;;;;2.54;78.01;99144.59;1716746;83;20916;-79
2021/12/20 03:23:26;;;;;;;0.53;0.53;;;;;;;2.59;78.09;99144.72;1716515;83;21171;-79
2021/12/20 03:25:54;;;;;;;0.98;0.88;;;;;;;2.63;77.90;99148.00;1716396;83;20857;-79
2021/12/20 03:28:21;;;;;;;1.27;0.85;;;;;;;2.64;77.85;99144.48;1716266;82;20940;-79
2021/12/20 03:30:48;;;;;;;0.93;0.80;;;;;;;2.64;77.79;99138.84;1716710;83;20903;-78
2021/12/20 03:33:16;;;;;;;1.10;1.00;;;;;;;2.67;77.73;99138.70;1716405;83;20868;-77
2021/12/20 03:35:43;;;;;;;2.50;1.00;;;;;;;2.67;77.62;99140.00;1716661;82;21820;-78
2021/12/20 03:38:09;;;;;;;0.80;0.80;;;;;;;2.69;77.61;99135.58;1716352;83;20975;-77
2021/12/20 03:40:41;;;;;;;0.90;0.90;;;;;;;2.70;77.61;99144.18;1716716;83;20883;-78
2021/12/20 03:43:06;;;;;;;1.05;0.95;;;;;;;2.70;77.69;99139.00;1716141;83;20908;-79
2021/12/20 03:45:36;;;;;;;0.75;0.70;;;;;;;2.72;77.78;99142.81;1716652;82;20888;-79
2021/12/20 03:48:02;;;;;;;1.40;1.07;;;;;;;2.75;77.80;99141.35;1716517;83;22017;-78
2021/12/20 03:50:29;;;;;;;0.75;0.75;;;;;;;2.77;77.80;99142.11;1716659;83;20975;-79
2021/12/20 03:52:56;;;;;;;1.45;1.32;;;;;;;2.81;77.77;99141.87;1716272;82;21117;-80
2021/12/20 03:55:23;;;;;;;2.35;1.70;;;;;;;2.85;77.59;99140.80;1716399;82;20892;-79
2021/12/20 03:57:50;;;;;;;1.57;1.30;;;;;;;2.85;77.38;99145.98;1716358;82;20896;-80
2021/12/20 04:00:17;;;;;;;1.50;1.40;;;;;;;2.83;77.22;99150.86;1716326;83;21532;-78
2021/12/20 04:02:46;;;;;;;2.30;1.80;;;;;;;2.80;77.14;99163.51;1716308;83;20900;-79
2021/12/20 04:05:13;;;;;;;3.02;2.10;;;;;;;2.77;77.14;99166.23;1716474;83;20904;-79
2021/12/20 04:07:39;;;;;;;2.62;2.33;;;;;;;2.74;77.17;99165.58;1716524;83;20900;-81
2021/12/20 04:10:07;;;;;;;2.72;2.27;;;;;;;2.72;77.32;99166.11;1716427;83;21389;-80
2021/12/20 04:12:36;;;;;;;3.15;1.92;;;;;;;2.73;77.49;99170.36;1716339;83;20848;-79
2021/12/20 04:15:05;;;;;;;2.15;2.00;;;;;;;2.76;77.53;99171.48;1716561;83;20907;-78
2021/12/20 04:17:32;;;;;;;2.12;1.12;;;;;;;2.80;77.54;99182.06;1717580;82;20947;-77
2021/12/20 04:19:59;;;;;;;3.85;2.08;;;;;;;2.82;77.49;99180.23;1716542;82;21003;-77
2021/12/20 04:22:25;;;;;;;2.83;2.55;;;;;;;2.83;77.46;99178.05;1753899;80;20927;-78
2021/12/20 04:24:52;;;;;;;2.70;2.12;;;;;;;2.82;77.36;99175.89;1754208;82;21011;-77
2021/12/20 04:27:20;;;;;;;2.60;2.12;;;;;;;2.81;77.19;99183.75;1753370;81;20914;-79
2021/12/20 04:29:47;;;;;;;3.22;2.00;;;;;;;2.75;77.07;99193.95;1755168;80;20901;-77
2021/12/20 04:32:14;;;;;;;5.45;3.00;;;;;;;2.67;77.14;99194.81;1755575;82;20869;-78
2021/12/20 04:34:41;;;;;;;6.28;2.50;;;;;;;2.59;77.46;99197.77;1755732;80;20904;-77
2021/12/20 04:37:10;;;;;;;3.12;2.65;;;;;;;2.56;77.77;99204.88;1719556;80;20960;-77
2021/12/20 04:39:37;;;;;;;2.92;2.33;;;;;;;2.52;78.05;99206.77;1719746;80;21015;-80
2021/12/20 04:42:04;;;;;;;2.72;2.42;;;;;;;2.53;78.25;99214.89;1719732;80;20956;-79
2021/12/20 04:44:31;;;;;;;4.45;3.37;;;;;;;2.55;78.43;99226.00;1719530;80;21216;-79
2021/12/20 04:46:58;;;;;;;3.85;3.02;;;;;;;2.58;78.54;99231.48;1719442;80;20900;-80
2021/12/20 04:49:25;;;;;;;6.15;4.37;;;;;;;2.58;78.36;99227.59;1719342;80;21061;-82
2021/12/20 04:51:54;;;;;;;2.95;2.45;;;;;;;2.53;78.50;99227.83;1719502;81;20990;-79
2021/12/20 04:54:21;;;;;;;3.62;3.02;;;;;;;2.53;78.68;99234.76;1719581;83;20947;-80
2021/12/20 04:56:48;;;;;;;6.72;3.17;;;;;;;2.54;78.70;99236.45;1719474;83;20896;-80
2021/12/20 04:59:15;;;;;;;4.75;3.67;;;;;;;2.55;78.71;99245.41;1719688;81;20912;-80
2021/12/20 05:01:42;;;;;;;5.90;5.03;;;;;;;2.53;78.85;99243.35;1719559;82;21145;-80
2021/12/20 05:04:10;;;;;;;11.70;7.08;;;;;;;2.53;78.99;99241.23;1719733;83;21471;-79
2021/12/20 05:06:38;;;;;;;12.35;7.28;;;;;;;2.52;79.09;99244.75;1719640;80;20860;-79
2021/12/20 05:09:05;;;;;;;9.03;6.28;;;;;;;2.53;79.20;99248.99;1719622;80;20950;-81
2021/12/20 05:11:35;;;;;;;12.03;8.28;;;;;;;2.54;79.25;99250.22;1717705;83;21389;-81
2021/12/20 05:14:02;;;;;;;16.40;10.10;;;;;;;2.56;79.46;99250.98;1716773;82;21160;-80
2021/12/20 05:16:29;;;;;;;18.00;9.10;;;;;;;2.58;79.47;99246.57;1753569;81;20932;-77
2021/12/20 05:18:56;;;;;;;18.67;12.60;;;;;;;2.60;79.47;99251.22;1753544;82;21489;-79
2021/12/20 05:21:23;;;;;;;15.80;10.00;;;;;;;2.62;79.42;99252.42;1752722;82;20901;-79
2021/12/20 05:23:53;;;;;;;22.02;13.28;;;;;;;2.62;79.28;99249.39;1752766;81;20984;-85
2021/12/20 05:26:20;;;;;;;15.23;10.32;;;;;;;2.61;79.18;99252.88;1734534;82;21205;-86
2021/12/20 05:28:49;;;;;;;22.00;12.75;;;;;;;2.58;79.22;99255.63;1753608;82;20834;-87
2021/12/20 05:31:15;;;;;;;24.90;15.05;;;;;;;2.57;79.35;99259.58;1756093;82;20901;-87
2021/12/20 05:33:43;;;;;;;22.13;13.18;;;;;;;2.58;79.44;99264.69;1755115;82;20869;-88
2021/12/20 05:36:10;;;;;;;28.00;17.95;;;;;;;2.58;79.53;99271.16;1756214;82;20940;-85
2021/12/20 05:38:37;;;;;;;34.10;18.15;;;;;;;2.57;79.59;99270.76;1756132;82;21098;-87
2021/12/20 05:41:04;;;;;;;30.77;17.90;;;;;;;2.62;79.70;99273.12;1754517;82;21406;-85
2021/12/20 05:43:32;;;;;;;24.85;13.93;;;;;;;2.64;79.71;99270.00;1754212;82;20900;-84
2021/12/20 05:46:01;;;;;;;22.60;13.58;;;;;;;2.65;79.47;99275.58;1753867;82;20975;-87
2021/12/20 05:48:30;;;;;;;21.77;13.15;;;;;;;2.64;79.36;99275.18;1754360;80;20838;-87
2021/12/20 05:50:58;;;;;;;26.00;12.85;;;;;;;2.64;79.21;99281.19;1754761;82;21132;-90
2021/12/20 05:53:25;;;;;;;21.77;11.80;;;;;;;2.63;79.16;99282.58;1760082;81;20821;-88
2021/12/20 05:55:52;;;;;;;23.42;12.70;;;;;;;2.62;79.21;99278.30;1759212;81;20986;-88
2021/12/20 05:58:19;;;;;;;17.77;11.85;;;;;;;2.60;79.24;99274.52;1758991;80;20983;-89
2021/12/20 06:00:45;;;;;;;16.55;10.20;;;;;;;2.59;79.03;99277.16;1758647;81;21232;-86
2021/12/20 06:03:13;;;;;;;15.58;10.30;;;;;;;2.55;78.93;99281.64;1758548;81;21157;-89
2021/12/20 06:05:43;;;;;;;18.80;11.73;;;;;;;2.54;79.00;99273.51;1758444;80;21026;-88
2021/12/20 06:08:10;;;;;;;25.65;14.65;;;;;;;2.55;78.97;99280.81;1758575;81;20928;-86
2021/12/20 06:10:37;;;;;;;23.90;13.78;;;;;;;2.54;78.86;99277.39;1758713;81;20935;-91
2021/12/20 06:13:04;;;;;;;22.95;14.38;;;;;;;2.55;78.82;99275.17;1758964;81;20888;-91
2021/12/20 06:15:31;;;;;;;19.82;12.53;;;;;;;2.55;78.71;99280.81;1758466;80;21129;-88
2021/12/20 06:18:00;;;;;;;22.25;12.70;;;;;;;2.54;78.57;99289.50;1757998;81;21018;-86
2021/12/20 06:20:27;;;;;;;22.17;13.00;;;;;;;2.55;78.43;99289.86;1758383;80;20900;-88
2021/12/20 06:22:54;;;;;;;17.23;12.05;;;;;;;2.52;78.32;99291.32;1758247;80;20912;-88
2021/12/20 06:25:21;;;;;;;22.35;13.28;;;;;;;2.48;78.37;99292.74;1758732;81;20979;-88
2021/12/20 06:27:48;;;;;;;17.30;12.93;;;;;;;2.47;78.48;99302.72;1757772;81;21152;-86
2021/12/20 06:30:15;;;;;;;21.97;12.65;;;;;;;2.46;78.54;99301.03;1758569;80;20943;-87
2021/12/20 06:32:44;;;;;;;19.62;13.10;;;;;;;2.47;78.63;99309.66;1758336;81;20936;-87
2021/12/20 06:35:13;;;;;;;20.72;14.05;;;;;;;2.48;78.70;99312.61;1758422;80;21461;-85
2021/12/20 06:37:43;;;;;;;26.02;16.82;;;;;;;2.49;78.73;99314.30;1758576;81;20932;-85
2021/12/20 06:40:10;;;;;;;24.02;15.25;;;;;;;2.53;78.66;99317.56;1759450;81;21162;-90
2021/12/20 06:42:38;;;;;;;20.92;14.18;;;;;;;2.56;78.53;99316.14;1761284;78;20876;-90
2021/12/20 06:45:07;;;;;;;18.00;12.37;;;;;;;2.60;78.43;99312.47;1761226;80;20908;-91
2021/12/20 06:47:35;;;;;;;18.80;12.55;;;;;;;2.65;78.36;99314.40;1761673;80;20900;-91
2021/12/20 06:50:03;;;;;;;20.00;11.25;;;;;;;2.71;78.29;99320.55;1761866;76;20912;-90
2021/12/20 06:52:31;;;;;;;19.00;12.07;;;;;;;2.78;78.22;99324.54;1760990;76;21184;-89
2021/12/20 06:54:57;;;;;;;17.52;10.48;;;;;;;2.87;78.05;99327.97;1748267;81;21027;-89
2021/12/20 06:57:25;;;;;;;15.55;9.43;;;;;;;2.96;77.91;99329.70;1739572;80;20891;-88
2021/12/20 06:59:53;;;;;;;13.22;9.08;;;;;;;3.06;77.78;99330.93;1737058;81;20901;-89
2021/12/20 07:02:20;;;;;;;14.10;10.15;;;;;;;3.15;77.59;99331.76;1737017;82;21028;-91
2021/12/20 07:04:47;;;;;;;16.30;10.32;;;;;;;3.23;77.46;99329.63;1737159;82;21804;-90
2021/12/20 07:07:14;;;;;;;15.70;10.15;;;;;;;3.33;77.13;99329.98;1736543;82;20898;-91
2021/12/20 07:09:42;;;;;;;15.40;10.15;;;;;;;3.42;76.89;99327.39;1736923;81;20945;-90
2021/12/20 07:12:10;;;;;;;15.55;10.65;;;;;;;3.47;76.53;99341.80;1737048;82;20936;-90
2021/12/20 07:14:38;;;;;;;15.75;9.33;;;;;;;3.50;76.27;99338.20;1736741;82;21347;-91
2021/12/20 07:17:06;;;;;;;15.32;10.32;;;;;;;3.52;76.01;99336.38;1736704;81;21232;-91
2021/12/20 07:19:33;;;;;;;14.55;8.58;;;;;;;3.51;75.72;99335.98;1736508;82;20893;-92
2021/12/20 07:22:00;;;;;;;15.28;9.38;;;;;;;3.47;75.46;99333.20;1736666;81;20913;-88
2021/12/20 07:24:27;;;;;;;17.45;9.78;;;;;;;3.40;75.28;99327.92;1736654;82;21520;-86
2021/12/20 07:26:54;;;;;;;18.52;10.25;;;;;;;3.35;75.42;99329.92;1736352;81;20928;-86
2021/12/20 07:29:21;;;;;;;18.87;10.50;;;;;;;3.33;75.50;99326.10;1736568;81;21099;-87
2021/12/20 07:31:48;;;;;;;16.20;9.48;;;;;;;3.26;75.46;99330.76;1736217;82;21130;-85
2021/12/20 07:34:15;;;;;;;13.98;9.00;;;;;;;3.19;75.47;99330.70;1715780;82;20940;-85
2021/12/20 07:36:43;;;;;;;14.15;9.45;;;;;;;3.15;75.73;99329.63;1736484;81;20908;-86
2021/12/20 07:39:11;;;;;;;24.57;16.60;;;;;;;3.11;75.73;99340.59;1736582;81;20988;-88
2021/12/20 07:41:38;;;;;;;27.15;17.48;;;;;;;3.07;76.11;99342.52;1736842;82;21114;-88
2021/12/20 07:44:05;;;;;;;24.80;13.25;;;;;;;3.08;76.41;99348.06;1737008;82;21331;-90
2021/12/20 07:46:35;;;;;;;22.17;14.80;;;;;;;3.09;76.33;99357.95;1737363;82;21071;-87
2021/12/20 07:49:01;;;;;;;20.52;13.78;;;;;;;3.11;76.48;99363.91;1737665;81;20944;-87
2021/12/20 07:51:31;;;;;;;20.10;13.62;;;;;;;3.17;76.50;99366.66;1738796;81;20826;-89
2021/12/20 07:53:57;;;;;;;18.40;12.85;;;;;;;3.19;76.24;99372.14;1740391;80;21111;-85
2021/12/20 07:56:25;;;;;;;21.62;11.20;;;;;;;3.18;76.22;99371.78;1753660;80;20892;-86
2021/12/20 07:59:10;;;;;;;16.85;11.25;;;;;;;3.19;75.94;99370.02;1750829;82;20912;-91
2021/12/20 08:01:37;;;;;;;16.65;11.20;;;;;;;3.15;75.77;99378.38;1750641;80;21381;-90
2021/12/20 08:04:22;;;;;;;12.85;9.43;;;;;;;3.11;75.73;99372.97;1750742;82;20983;-90
2021/12/20 08:06:49;;;;;;;10.55;8.68;;;;;;;3.11;75.77;99384.63;1750665;80;21124;-90
2021/12/20 08:09:35;;;;;;;9.93;5.83;;;;;;;3.15;75.86;99384.03;1750221;82;20881;-85
2021/12/20 08:12:04;;;;;;;9.73;6.10;;;;;;;3.16;75.65;99388.28;1750349;80;20936;-87
2021/12/20 08:14:49;;;;;;;5.53;4.55;;;;;;;3.16;75.59;99385.69;1750190;82;20983;-86
2021/12/20 08:17:17;;;;;;;4.28;3.67;;;;;;;3.17;74.82;99386.09;1750819;82;20945;-88
2021/12/20 08:19:46;;;;;;;5.30;4.33;;;;;;;3.15;74.75;99384.86;1722979;82;20841;-89
2021/12/20 08:22:13;;;;;;;6.28;3.92;;;;;;;3.14;74.54;99375.42;1750393;82;21405;-85
2021/12/20 08:24:40;;;;;;;4.37;3.85;;;;;;;3.18;74.25;99388.61;1750233;81;21006;-76
2021/12/20 08:27:06;;;;;;;6.15;4.40;;;;;;;3.21;74.26;99387.62;1750350;80;20896;-77
2021/12/20 08:29:43;;;;;;;6.20;4.37;;;;;;;3.27;74.45;99380.84;1750465;80;21551;-80
2021/12/20 08:32:11;;;;;;;4.37;3.37;;;;;;;3.39;74.59;99385.39;1750200;80;21162;-81
2021/12/20 08:34:39;;;;;;;4.70;3.30;;;;;;;3.53;74.20;99393.33;1750191;80;20967;-79
2021/12/20 08:37:06;;;;;;;6.58;3.42;;;;;;;3.69;73.80;99385.60;1750602;82;20932;-79
2021/12/20 08:39:34;;;;;;;3.30;2.50;;;;;;;3.85;73.67;99390.83;1750143;82;20912;-79
2021/12/20 08:42:19;;;;;;;3.33;2.92;;;;;;;3.99;72.15;99395.28;1750058;82;20975;-80
2021/12/20 08:44:46;;;;;;;3.65;2.70;;;;;;;4.03;72.15;99395.97;1750185;82;21192;-80
2021/12/20 08:47:32;;;;;;;3.60;3.20;;;;;;;4.04;71.65;99394.57;1750058;82;21468;-80
2021/12/20 08:50:04;;;;;;;3.80;3.10;;;;;;;4.01;70.91;99392.15;1750179;82;21523;-80
2021/12/20 08:52:33;;;;;;;6.43;3.83;;;;;;;3.95;70.76;99395.89;1750245;82;20987;-77
2021/12/20 08:55:18;;;;;;;5.28;3.45;;;;;;;3.92;70.79;99393.47;1750081;81;21947;-79
2021/12/20 08:57:45;;;;;;;3.65;2.52;;;;;;;3.95;70.87;99394.59;1750424;82;21753;-81
2021/12/20 09:00:22;;;;;;;4.12;2.25;;;;;;;3.94;69.92;99397.29;1750127;82;20940;-81
2021/12/20 09:02:51;;;;;;;2.65;2.25;;;;;;;3.94;69.90;99393.40;1749894;82;20940;-81
2021/12/20 09:05:18;;;;;;;2.72;2.52;;;;;;;3.95;69.64;99396.36;1750112;80;21473;-80
2021/12/20 09:09:45;;;;;;;2.25;2.15;;;;;;;3.99;69.45;99387.97;1810861;79;27882;-80
2021/12/20 09:12:18;;;;;;;2.77;1.98;;;;;;;3.93;68.87;99394.30;1787408;80;20891;-79
2021/12/20 09:14:48;;;;;;;2.17;1.70;;;;;;;3.89;68.94;99388.45;1790464;80;20994;-78
2021/12/20 09:17:16;;;;;;;3.90;2.35;;;;;;;3.85;68.75;99387.40;1788806;80;21361;-79
2021/12/20 09:19:45;;;;;;;4.08;2.47;;;;;;;3.79;68.54;99391.14;1787411;80;20908;-78
2021/12/20 09:22:12;;;;;;;2.33;1.98;;;;;;;3.76;69.06;99391.74;1787366;80;21373;-79
2021/12/20 09:24:40;;;;;;;2.25;2.05;;;;;;;3.77;68.81;99393.44;1787372;80;20943;-80
2021/12/20 09:27:07;;;;;;;2.33;2.02;;;;;;;3.78;69.01;99401.14;1780180;80;21976;-81
2021/12/20 09:29:34;;;;;;;2.25;1.82;;;;;;;3.77;69.47;99398.16;1787150;80;20841;-80
2021/12/20 09:32:02;;;;;;;2.70;2.45;;;;;;;3.82;69.98;99395.32;1787534;80;20931;-83
2021/12/20 09:34:28;;;;;;;4.15;2.12;;;;;;;3.90;70.19;99398.36;1787319;80;20978;-78
2021/12/20 09:36:55;;;;;;;4.17;2.37;;;;;;;3.94;70.32;99392.93;1787505;80;20891;-79
2021/12/20 09:39:23;;;;;;;5.15;2.02;;;;;;;4.00;69.87;99395.64;1787180;80;21158;-77
2021/12/20 09:44:23;;;;;;;3.30;2.12;;;;;;;4.04;68.91;99387.25;1787949;80;20895;-75
2021/12/20 09:46:51;;;;;;;2.83;2.22;;;;;;;4.02;68.73;99387.80;1755964;80;20892;-78
2021/12/20 09:49:19;;;;;;;2.15;1.95;;;;;;;4.03;68.61;99398.56;1754558;80;20982;-78
2021/12/20 09:51:46;;;;;;;3.87;2.52;;;;;;;4.02;68.65;99384.73;1754772;80;21915;-78
2021/12/20 09:54:12;;;;;;;4.10;2.20;;;;;;;4.03;68.02;99387.72;1787740;80;20887;-80
2021/12/20 09:56:39;;;;;;;3.02;2.35;;;;;;;4.02;67.53;99389.92;1787655;80;20904;-81
2021/12/20 09:59:12;;;;;;;4.90;2.92;;;;;;;3.96;67.61;99390.27;1787352;80;21393;-81
2021/12/20 10:01:39;;;;;;;3.22;2.80;;;;;;;3.93;67.44;99382.20;1787702;80;21022;-80
2021/12/20 10:04:06;;;;;;;2.50;2.30;;;;;;;3.92;67.52;99380.97;1787175;80;21118;-81
2021/12/20 10:06:37;;;;;;;3.12;2.75;;;;;;;3.90;67.66;99382.34;1755284;80;21523;-80
2021/12/20 10:09:12;;;;;;;3.17;2.52;;;;;;;3.91;67.75;99380.57;1787064;80;20919;-80
2021/12/20 10:11:35;;;;;;;4.12;3.15;;;;;;;3.90;67.83;99377.15;1787016;80;21377;-81
2021/12/20 10:14:16;;;;;;;4.67;3.33;;;;;;;3.91;68.16;99381.44;1787320;80;20959;-80
2021/12/20 10:16:44;;;;;;;5.53;3.52;;;;;;;3.86;68.36;99381.28;1787563;80;21097;-81
2021/12/20 10:19:33;;;;;;;6.35;3.52;;;;;;;3.84;68.51;99385.70;1786982;80;21058;-81
2021/12/20 10:22:07;;;;;;;4.05;3.30;;;;;;;3.83;68.49;99373.20;1787097;80;20892;-82
2021/12/20 10:24:36;;;;;;;4.28;3.25;;;;;;;3.86;68.62;99378.22;1781875;80;20949;-81
2021/12/20 10:27:03;;;;;;;4.62;3.30;;;;;;;3.91;68.67;99377.98;1787077;80;20848;-82
2021/12/20 10:29:36;;;;;;;4.92;3.65;;;;;;;3.94;68.65;99375.24;1786514;80;21010;-80
2021/12/20 10:32:05;;;;;;;3.15;2.25;;;;;;;3.93;68.64;99390.41;1786892;80;21048;-79
2021/12/20 10:34:34;;;;;;;3.10;2.10;;;;;;;3.91;68.59;99385.76;1787018;80;20895;-81
2021/12/20 10:37:02;;;;;;;2.95;2.30;;;;;;;3.85;68.18;99391.29;1786567;80;20939;-79
2021/12/20 10:39:41;;;;;;;2.72;2.52;;;;;;;3.78;67.96;99385.59;1786997;80;20931;-78
2021/12/20 10:42:25;;;;;;;2.27;2.05;;;;;;;3.76;67.86;99391.74;1786792;80;21531;-78
2021/12/20 10:45:12;;;;;;;3.95;1.80;;;;;;;3.73;67.75;99396.63;1787254;80;20880;-82
2021/12/20 10:47:42;;;;;;;2.50;2.27;;;;;;;3.67;67.61;99397.80;1742978;80;20959;-81
2021/12/20 10:50:29;;;;;;;2.77;1.57;;;;;;;3.61;67.82;99401.99;1786968;80;20899;-84
2021/12/20 10:53:17;;;;;;;3.25;2.25;;;;;;;3.55;67.89;99401.47;1786588;80;20987;-80
2021/12/20 10:55:50;;;;;;;2.67;2.00;;;;;;;3.46;68.20;99399.71;1786805;80;21126;-80
2021/12/20 10:58:38;;;;;;;2.17;1.80;;;;;;;3.40;68.53;99409.55;1786535;80;20923;-79
2021/12/20 11:04:12;;;;;;;2.45;2.25;;;;;;;3.24;68.51;99416.78;1786567;80;20931;-81
2021/12/20 11:09:37;;;;;;;2.40;1.10;;;;;;;3.03;69.80;99421.73;1786522;80;21157;-79
2021/12/20 11:12:09;;;;;;;4.25;2.00;;;;;;;2.85;69.86;99432.05;1786509;80;20990;-77
2021/12/20 11:14:41;;;;;;;1.60;1.10;;;;;;;2.72;70.51;99425.78;1786039;80;20982;-78
2021/12/20 11:17:11;;;;;;;1.22;0.80;;;;;;;2.68;70.96;99426.83;1786391;80;20947;-79
2021/12/20 11:19:47;;;;;;;1.27;1.00;;;;;;;2.72;70.79;99430.13;1786685;80;20927;-78
2021/12/20 11:22:24;;;;;;;1.12;1.00;;;;;;;2.68;70.75;99427.66;1786631;80;21539;-77
2021/12/20 11:24:59;;;;;;;2.30;1.00;;;;;;;2.64;70.81;99430.00;1786498;80;21310;-77
2021/12/20 11:27:33;;;;;;;0.88;0.88;;;;;;;2.64;70.93;99425.29;1786204;80;20943;-77
2021/12/20 11:30:10;;;;;;;2.42;1.10;;;;;;;2.63;71.02;99429.63;1786664;80;21437;-77
2021/12/20 11:32:39;;;;;;;;;;;;;;;2.67;71.04;99429.87;1789064;80;20932;-79
2021/12/20 11:35:06;;;;;;;0.65;0.65;;;;;;;2.67;71.05;99436.81;1786611;80;21147;-78
2021/12/20 11:37:37;;;;;;;0.50;0.45;;;;;;;2.70;71.26;99435.36;1786566;80;20880;-77
2021/12/20 11:40:07;;;;;;;2.12;1.00;;;;;;;2.74;71.17;99428.30;1786574;80;20924;-78
2021/12/20 11:42:34;;;;;;;1.77;1.25;;;;;;;2.80;71.18;99430.58;1786565;80;20904;-77
2021/12/20 11:45:05;;;;;;;1.77;0.80;;;;;;;2.84;71.07;99434.70;1786503;80;20927;-77
2021/12/20 11:47:56;;;;;;;1.70;0.68;;;;;;;2.87;70.78;99438.47;1786611;80;21863;-74
2021/12/20 11:50:31;;;;;;;2.20;1.47;;;;;;;2.88;70.66;99426.72;1786341;80;21489;-75
2021/12/20 11:53:07;;;;;;;;;;;;;;;2.93;70.54;99431.67;1788952;80;20958;-78
2021/12/20 11:55:35;;;;;;;4.90;3.02;;;;;;;2.96;70.32;99437.16;1786447;80;20120;-78
2021/12/20 11:58:07;;;;;;;3.75;2.15;;;;;;;2.95;70.37;99433.73;1786392;80;20891;-79
2021/12/20 12:00:37;;;;;;;8.18;3.72;;;;;;;2.99;70.39;99437.03;1784848;80;21156;-77
2021/12/20 12:03:19;;;;;;;4.67;3.87;;;;;;;3.01;70.27;99440.39;1786483;80;20864;-79
2021/12/20 12:05:52;;;;;;;4.53;3.67;;;;;;;3.03;70.34;99443.75;1786655;80;21342;-77
2021/12/20 12:08:40;;;;;;;5.62;4.12;;;;;;;3.07;70.34;99445.28;1785414;80;20907;-78
2021/12/20 12:11:13;;;;;;;14.45;8.55;;;;;;;3.10;70.39;99454.19;1775066;80;20948;-75
2021/12/20 12:14:18;;;;;;;13.90;9.38;;;;;;;3.13;70.19;99454.03;1775023;80;21133;-77